CYKJ

Details ICAO CYKJ
Name Key Lake
Region Canada
Timezone America/Regina (UTC-6.0)
Plans Departing 1
Arriving 2
Stats Elevation 1,670 ft / 509 m (AMSL)
Location 57.254169° -105.617500°
Runways 1
Magnetic Variation 9.862° E
Sunrise 2018-05-22 10:30:52 UTC / 2018-05-22 04:30:52 Local
Sunset 2018-05-23 03:30:18 UTC / 2018-05-22 21:30:18 Local
Advertisement - Login to hide

Runways

ID Width Length Bearing (true) Bearing (mag) Surface Threshold Offset Overrun Length
03 200 ft / 61 m 5,285 ft / 1,611 m 42.99° 33.13° Gravel 0 ft / 0 m 0 ft / 0 m
21 200 ft / 61 m 5,285 ft / 1,611 m 223.01° 213.15° Gravel 0 ft / 0 m 0 ft / 0 m

Map

Weather


0- 5 10 15 20 25 30 35+ Temperature / ° C

Clouds and Precipitation
Forecast for 2018-05-22 18:00 UTC. Updated 2 hours ago

Ground ~20,000 ft ~40,000 ft Winds

METAR

CYKJ 221900Z AUTO 16013KT 9SM CLR 21/03 A2995 RMK SLP154 DENSITY ALT 2700FT

TAF

TAF CYKJ 221838Z 2219/2224 16010KT P6SM SKC RMK FCST BASED ON AUTO OBS. NXT FCST WILL BE ISSUED AT 230945Z
Warning: Do not use this data for real-world aviation or navigation. No guarantee of current accuracy is given.